Saturday, August 18, 2018, 3:14 AM EDT
Back to Local

KHIE, Mt Washington Regional Airport

Location: Jefferson, NH, United States Lat: 44.367
Local Time: 3:14 AM EDT ( 7:14 GMT) Lon: -71.55
Time Zone: US/Eastern Elev: 1072 ft

Show me the last for .
Show Decoded

2018-08-18 02:52 METAR KHIE 180652Z AUTO 00000KT 8SM BKN024 OVC045 21/20 A2981 RMK AO2 SLP090
                 T02060200 =
2018-08-18 02:45 METAR KHIE 180645Z AUTO 00000KT 7SM BKN024 OVC046 20/19 A2981 RMK AO2 T02000194
                 =
2018-08-18 01:52 METAR KHIE 180552Z AUTO 00000KT 8SM SCT027 OVC034 20/19 A2983 RMK AO2 SLP097
                 60002 T02000194 10222 20194 58021 =
2018-08-18 01:30 METAR KHIE 180530Z AUTO 00000KT 8SM OVC029 20/19 A2984 RMK AO2 T02000194 =
2018-08-18 00:52 METAR KHIE 180452Z AUTO 00000KT 7SM BKN032 OVC049 20/19 A2986 RMK AO2 SLP107
                 T02000194 402670078 =
2018-08-17 23:52 METAR KHIE 180352Z AUTO 00000KT 5SM BR FEW041 20/19 A2987 RMK AO2 SLP109
                 T02000194 =
2018-08-17 22:52 METAR KHIE 180252Z AUTO 30003KT 10SM BKN041 OVC050 21/20 A2990 RMK AO2
                 RAE0159B20E39 SLP120 P0001 60002 T02110200 58005 =
2018-08-17 22:21 METAR KHIE 180221Z AUTO VRB03KT 9SM -RA SCT036 BKN048 OVC060 21/20 A2988 RMK AO2
                 LTG DSNT N RAE0159B20 P0000 T02110200 =
2018-08-17 22:06 METAR KHIE 180206Z AUTO 00000KT 10SM VCTS SCT034 BKN041 OVC048 21/20 A2989 RMK
                 AO2 RAE0159 P0000 T02110200 =
2018-08-17 21:52 METAR KHIE 180152Z AUTO 01003KT 8SM -RA SCT036 BKN048 OVC095 22/20 A2989 RMK AO2
                 LTG DSNT S RAB04E08B40 SLP120 P0001 T02170200 =
2018-08-17 20:52 METAR KHIE 180052Z AUTO 29003KT 10SM BKN038 OVC080 22/20 A2992 RMK AO2 SLP130
                 T02170200 =
2018-08-17 19:52 METAR KHIE 172352Z AUTO 28004KT 10SM BKN039 OVC100 22/19 A2991 RMK AO2 SLP129
                 60001 T02220194 10256 20222 58014 =
2018-08-17 18:52 METAR KHIE 172252Z AUTO 25004KT 10SM OVC042 24/19 A2993 RMK AO2 SLP136 T02390189
                 =
2018-08-17 17:52 METAR KHIE 172152Z AUTO 00000KT 10SM FEW045 FEW060 BKN095 24/21 A2994 RMK AO2
                 RAE07B29E38 SLP140 P0000 T02390206 =
2018-08-17 16:52 METAR KHIE 172052Z AUTO 00000KT 10SM -RA FEW060 BKN090 OVC110 24/21 A2995 RMK
                 AO2 SLP143 P0000 60001 T02390211 58025 =
2018-08-17 15:52 METAR KHIE 171952Z AUTO 00000KT 10SM -RA FEW050 FEW070 OVC110 24/19 A2999 RMK
                 AO2 SLP154 P0001 T02390194 =
2018-08-17 14:52 METAR KHIE 171852Z AUTO 25003KT 10SM -RA BKN037 BKN070 24/19 A3003 RMK AO2 RAB46
                 SLP168 P0000 T02390194 =
2018-08-17 13:52 METAR KHIE 171752Z AUTO 30003KT 10SM FEW045 SCT055 26/19 A3003 RMK AO2 SLP168
                 T02560189 10267 20111 56022 =
2018-08-17 12:52 METAR KHIE 171652Z AUTO 00000KT 10SM SCT050 BKN060 26/18 A3004 RMK AO2 SLP171
                 T02560178 =
2018-08-17 11:52 METAR KHIE 171552Z AUTO 00000KT 10SM CLR 26/18 A3007 RMK AO2 SLP180 T02560178 =
2018-08-17 10:52 METAR KHIE 171452Z AUTO 00000KT 10SM CLR 22/16 A3010 RMK AO2 SLP191 T02170161
                 56016 =
2018-08-17 09:52 METAR KHIE 171352Z AUTO 00000KT 10SM CLR 19/15 A3011 RMK AO2 SLP198 T01890150 =
2018-08-17 08:52 METAR KHIE 171252Z AUTO 00000KT 10SM SCT002 14/13 A3012 RMK AO2 SLP202 T01390128
                 =
2018-08-17 07:52 METAR KHIE 171152Z AUTO 00000KT 10SM OVC002 11/11 A3014 RMK AO2 SLP209 T01110111
                 10111 20078 50003 =
2018-08-17 07:38 METAR KHIE 171138Z AUTO 00000KT 3SM BR OVC001 10/10 A3014 RMK AO2 T01000100 =
2018-08-17 07:35 METAR KHIE 171135Z AUTO 00000KT 1 1/4SM BR OVC001 10/10 A3014 RMK AO2 T01000100
                 =
2018-08-17 07:07 METAR KHIE 171107Z AUTO 00000KT 3/4SM BR OVC001 09/09 A3015 RMK AO2 T00940089 =
2018-08-17 06:52 METAR KHIE 171052Z AUTO 00000KT 1 1/4SM BR OVC001 08/08 A3015 RMK AO2 SLP211
                 T00830083 =
2018-08-17 06:48 METAR KHIE 171048Z AUTO 00000KT 1 3/4SM BR OVC001 08/08 A3015 RMK AO2 =
2018-08-17 06:39 METAR KHIE 171039Z AUTO 00000KT 3SM BR OVC001 08/08 A3015 RMK AO2 T00830078 =
2018-08-17 06:37 METAR KHIE 171037Z AUTO 08003KT 1 1/4SM BR OVC001 08/08 A3015 RMK AO2 T00830078
                 =
2018-08-17 06:08 METAR KHIE 171008Z AUTO 00000KT 3/4SM BR VV002 08/07 A3014 RMK AO2 T00780072 =
2018-08-17 06:04 METAR KHIE 171004Z AUTO 00000KT 1 3/4SM BR BKN001 08/07 A3014 RMK AO2 T00780072
                 =
2018-08-17 05:52 METAR KHIE 170952Z AUTO 00000KT 9SM BKN001 08/08 A3014 RMK AO2 SLP207 T00830078
                 =
2018-08-17 05:20 METAR KHIE 170920Z AUTO 00000KT 4SM BR OVC001 08/08 A3014 RMK AO2 T00830083 =
2018-08-17 05:18 METAR KHIE 170918Z AUTO 00000KT 1 1/4SM BR OVC001 08/08 A3014 RMK AO2 T00830083
                 =
2018-08-17 04:52 METAR KHIE 170852Z AUTO 00000KT 3/4SM BR VV001 09/08 A3013 RMK AO2 SLP204
                 T00890083 53001 =
2018-08-17 03:52 METAR KHIE 170752Z AUTO 00000KT 1/2SM FG OVC001 09/08 A3013 RMK AO2 SLP204
                 T00890083 =
2018-08-17 03:50 METAR KHIE 170750Z AUTO 00000KT 1SM BR OVC001 09/08 A3013 RMK AO2 =
2018-08-17 03:42 METAR KHIE 170742Z AUTO 00000KT 2 1/2SM BR OVC001 09/08 A3013 RMK AO2 VIS 1
                 3/4V5 T00890083 =
2018-08-17 03:16 METAR KHIE 170716Z AUTO 00000KT 3SM BR OVC001 09/08 A3013 RMK AO2 T00890083 =

Support USWX by starting your Amazon purchase here.